Time;durP1;ratioP1;P1;durP2;ratioP2;P2;SDS_P1;SDS_P2;PMS_P1;PMS_P2;Temp;Humidity;BMP_temperature;BMP_pressure;BME280_temperature;BME280_humidity;BME280_pressure;Samples;Min_cycle;Max_cycle;Signal;HPM_P1;HPM_P2
2021/07/31 00:01:35;;;;;;;5.32;3.60;;;18.00;98.00;;;;;;5093252;28;20230;-90
2021/07/31 00:04:02;;;;;;;4.40;4.00;;;18.00;98.20;;;;;;5094045;28;20203;-91
2021/07/31 00:06:29;;;;;;;6.47;5.68;;;18.00;98.00;;;;;;5095953;28;20214;-92
2021/07/31 00:08:57;;;;;;;3.95;3.65;;;18.00;98.00;;;;;;5104987;28;20205;-91
2021/07/31 00:11:25;;;;;;;4.20;3.80;;;18.00;98.40;;;;;;5112562;28;20227;-91
2021/07/31 00:13:52;;;;;;;4.05;3.38;;;18.00;98.70;;;;;;5128460;28;20284;-90
2021/07/31 00:16:18;;;;;;;5.32;4.25;;;18.00;99.00;;;;;;5116912;28;20214;-91
2021/07/31 00:18:45;;;;;;;5.00;3.88;;;17.90;99.20;;;;;;5111329;28;20219;-90
2021/07/31 00:21:12;;;;;;;6.80;3.97;;;17.80;99.00;;;;;;5104837;27;20199;-91
2021/07/31 00:23:39;;;;;;;5.28;3.88;;;17.80;99.20;;;;;;5102434;28;20562;-90
2021/07/31 00:26:07;;;;;;;4.53;3.85;;;17.70;99.20;;;;;;5103679;28;20208;-91
2021/07/31 00:28:36;;;;;;;4.30;3.70;;;17.60;99.50;;;;;;5122425;27;20234;-90
2021/07/31 00:31:03;;;;;;;5.22;4.10;;;17.50;99.60;;;;;;5108805;28;20196;-90
2021/07/31 00:33:30;;;;;;;4.20;3.80;;;17.40;99.90;;;;;;5095819;28;20238;-91
2021/07/31 00:35:57;;;;;;;4.82;4.32;;;17.30;99.90;;;;;;5079350;28;20197;-90
2021/07/31 00:38:24;;;;;;;5.38;4.50;;;17.20;99.90;;;;;;5113671;28;20895;-91
2021/07/31 00:40:51;;;;;;;6.70;4.25;;;17.10;99.90;;;;;;5105186;28;20201;-91
2021/07/31 00:43:20;;;;;;;4.65;4.10;;;17.30;99.90;;;;;;5093372;28;20217;-90
2021/07/31 00:45:47;;;;;;;5.15;3.88;;;17.30;99.90;;;;;;5090399;28;20671;-90
2021/07/31 00:48:14;;;;;;;4.72;4.07;;;17.20;99.90;;;;;;5079949;28;20228;-91
2021/07/31 00:50:41;;;;;;;6.93;4.25;;;17.20;99.90;;;;;;5083521;28;20197;-90
2021/07/31 00:53:08;;;;;;;5.35;3.83;;;17.30;99.90;;;;;;5086630;28;20225;-90
2021/07/31 00:55:37;;;;;;;5.65;4.07;;;17.30;99.90;;;;;;5086947;28;20211;-91
2021/07/31 00:58:05;;;;;;;6.70;4.03;;;17.40;99.90;;;;;;5089879;28;20220;-90
2021/07/31 01:00:33;;;;;;;4.22;3.83;;;17.40;99.90;;;;;;5071902;28;20197;-91
2021/07/31 01:03:00;;;;;;;5.82;4.25;;;17.30;99.90;;;;;;5067876;28;20677;-92
2021/07/31 01:05:27;;;;;;;4.65;4.07;;;17.40;99.90;;;;;;5083547;28;20541;-90
2021/07/31 01:07:54;;;;;;;6.22;4.18;;;17.40;99.90;;;;;;5082599;28;20237;-91
2021/07/31 01:10:21;;;;;;;14.48;12.95;;;17.50;99.90;;;;;;5065546;28;20617;-90
2021/07/31 01:12:56;;;;;;;5.10;4.25;;;17.50;99.90;;;;;;5097505;28;20218;-90
2021/07/31 01:15:23;;;;;;;7.28;6.22;;;17.50;99.90;;;;;;5108157;28;20192;-91
2021/07/31 01:17:51;;;;;;;4.80;4.22;;;17.50;99.90;;;;;;5087796;28;20224;-90
2021/07/31 01:20:18;;;;;;;6.10;4.20;;;17.50;99.90;;;;;;5082039;28;20208;-90
2021/07/31 01:22:46;;;;;;;6.47;4.05;;;17.40;99.90;;;;;;5096543;28;20677;-90
2021/07/31 01:25:13;;;;;;;5.03;4.45;;;17.40;99.90;;;;;;5091471;28;20199;-91
2021/07/31 01:27:41;;;;;;;4.85;4.20;;;17.50;99.90;;;;;;5084165;28;20225;-90
2021/07/31 01:30:09;;;;;;;5.50;4.18;;;17.50;99.90;;;;;;5086323;28;20205;-91
2021/07/31 01:32:36;;;;;;;6.45;5.78;;;17.50;99.90;;;;;;5088585;28;20225;-91
2021/07/31 01:35:03;;;;;;;7.65;5.05;;;17.50;99.90;;;;;;5097967;28;20200;-91
2021/07/31 01:37:30;;;;;;;10.05;8.70;;;17.60;99.90;;;;;;5082218;28;20223;-91
2021/07/31 01:39:59;;;;;;;5.80;4.80;;;17.60;99.90;;;;;;5096372;28;20196;-90
2021/07/31 01:42:26;;;;;;;7.55;6.80;;;17.60;99.90;;;;;;5085330;28;20225;-90
2021/07/31 01:44:53;;;;;;;7.18;6.45;;;17.60;99.90;;;;;;5083015;28;20200;-91
2021/07/31 01:47:20;;;;;;;4.40;4.00;;;17.60;99.90;;;;;;5087194;28;20248;-91
2021/07/31 01:49:47;;;;;;;5.13;4.43;;;17.50;99.90;;;;;;5102596;28;20201;-91
2021/07/31 01:52:13;;;;;;;6.70;3.88;;;17.60;99.90;;;;;;5095224;28;20584;-90
2021/07/31 01:54:40;;;;;;;4.50;4.10;;;17.60;99.90;;;;;;5096306;28;20287;-91
2021/07/31 01:57:09;;;;;;;5.28;4.38;;;17.60;99.90;;;;;;5087656;28;20303;-90
2021/07/31 01:59:36;;;;;;;4.22;3.83;;;17.60;99.90;;;;;;5083843;28;20217;-91
2021/07/31 02:02:03;;;;;;;4.57;4.18;;;17.60;99.90;;;;;;5082642;28;20643;-91
2021/07/31 02:04:30;;;;;;;5.03;4.07;;;17.60;99.90;;;;;;5084578;28;20571;-91
2021/07/31 02:06:57;;;;;;;7.40;4.22;;;17.60;99.90;;;;;;5069181;28;20229;-92
2021/07/31 02:09:24;;;;;;;4.95;4.55;;;17.70;99.90;;;;;;5080380;28;20207;-90
2021/07/31 02:11:50;;;;;;;5.25;3.92;;;17.70;99.90;;;;;;5082380;28;20231;-90
2021/07/31 02:14:19;;;;;;;4.40;3.90;;;17.70;99.90;;;;;;5077224;28;20197;-91
2021/07/31 02:16:46;;;;;;;5.65;4.80;;;17.70;99.90;;;;;;5077527;28;20233;-91
2021/07/31 02:19:13;;;;;;;7.10;4.70;;;17.70;99.90;;;;;;5071859;28;20307;-91
2021/07/31 02:21:41;;;;;;;4.10;3.75;;;17.70;99.90;;;;;;5069657;28;20473;-91
2021/07/31 02:24:08;;;;;;;5.32;4.20;;;17.70;99.90;;;;;;5073651;28;20276;-91
2021/07/31 02:26:35;;;;;;;5.35;4.25;;;17.70;99.90;;;;;;5076759;28;20224;-91
2021/07/31 02:29:02;;;;;;;6.07;3.95;;;17.80;99.90;;;;;;5095316;28;20230;-91
2021/07/31 02:31:31;;;;;;;7.40;4.38;;;17.70;99.90;;;;;;5093359;28;20201;-91
2021/07/31 02:33:58;;;;;;;4.38;3.97;;;17.80;99.90;;;;;;5090943;28;20189;-90
2021/07/31 02:36:25;;;;;;;4.85;4.45;;;17.80;99.90;;;;;;5103531;28;20196;-91
2021/07/31 02:38:52;;;;;;;4.53;4.07;;;17.80;99.90;;;;;;5104117;28;20309;-91
2021/07/31 02:41:19;;;;;;;5.13;4.20;;;17.70;99.90;;;;;;5103705;28;20200;-91
2021/07/31 02:43:46;;;;;;;4.72;4.22;;;17.70;99.90;;;;;;5106793;28;20192;-91
2021/07/31 02:46:13;;;;;;;6.93;4.22;;;17.80;99.90;;;;;;5101648;28;20200;-91
2021/07/31 02:48:42;;;;;;;7.18;4.22;;;17.80;99.90;;;;;;5096466;28;20222;-91
2021/07/31 02:51:11;;;;;;;4.60;4.18;;;17.80;99.90;;;;;;5093279;28;20211;-91
2021/07/31 02:53:39;;;;;;;4.55;3.97;;;17.80;99.90;;;;;;5092187;28;20204;-91
2021/07/31 02:56:06;;;;;;;6.20;3.95;;;17.70;99.90;;;;;;5109211;28;20655;-91
2021/07/31 02:58:34;;;;;;;6.78;3.92;;;17.70;99.90;;;;;;5093144;28;20236;-91
2021/07/31 03:01:03;;;;;;;9.88;8.63;;;17.70;99.90;;;;;;5104436;28;20192;-91
2021/07/31 03:03:30;;;;;;;4.72;4.15;;;17.70;99.90;;;;;;5099244;28;20625;-91
2021/07/31 03:06:00;;;;;;;5.15;4.15;;;17.70;99.90;;;;;;5094126;28;20279;-91
2021/07/31 03:08:27;;;;;;;5.07;4.10;;;17.80;99.90;;;;;;5104077;28;20220;-90
2021/07/31 03:10:56;;;;;;;3.72;3.42;;;17.70;99.90;;;;;;5081530;28;20196;-90
2021/07/31 03:13:23;;;;;;;4.40;3.92;;;17.70;99.90;;;;;;5101928;27;20239;-91
2021/07/31 03:15:50;;;;;;;5.93;4.25;;;17.60;99.90;;;;;;5090043;28;20193;-91
2021/07/31 03:18:17;;;;;;;5.65;4.38;;;17.70;99.90;;;;;;5107133;28;20279;-91
2021/07/31 03:20:47;;;;;;;4.80;3.83;;;17.80;99.90;;;;;;5104821;28;20636;-91
2021/07/31 03:23:18;;;;;;;5.13;4.38;;;17.80;99.90;;;;;;5094555;28;20913;-90
2021/07/31 03:25:45;;;;;;;4.38;3.80;;;17.80;99.90;;;;;;5087659;28;20204;-91
2021/07/31 03:28:12;;;;;;;4.40;4.00;;;17.70;99.90;;;;;;5095210;28;20227;-91
2021/07/31 03:30:43;;;;;;;5.32;3.97;;;17.70;99.90;;;;;;5098477;28;20196;-91
2021/07/31 03:33:10;;;;;;;7.88;4.35;;;17.70;99.90;;;;;;5093834;28;20238;-91
2021/07/31 03:35:37;;;;;;;4.68;3.88;;;17.60;99.90;;;;;;5094113;28;20501;-91
2021/07/31 03:38:05;;;;;;;6.20;4.20;;;17.60;99.90;;;;;;5094040;28;20234;-91
2021/07/31 03:40:34;;;;;;;5.60;4.40;;;17.50;99.90;;;;;;5094429;28;20216;-91
2021/07/31 03:43:01;;;;;;;5.47;4.05;;;17.40;99.90;;;;;;5087437;28;20221;-91
2021/07/31 03:45:28;;;;;;;4.18;3.75;;;17.40;99.90;;;;;;5087424;28;20227;-91
2021/07/31 03:47:55;;;;;;;4.88;4.38;;;17.40;99.90;;;;;;5097529;28;20656;-91
2021/07/31 03:50:23;;;;;;;4.93;4.05;;;17.50;99.90;;;;;;5106529;28;20673;-91
2021/07/31 03:52:50;;;;;;;4.75;4.30;;;17.40;99.90;;;;;;5089155;28;20221;-91
2021/07/31 03:55:17;;;;;;;6.68;4.53;;;17.40;99.90;;;;;;5093258;28;20197;-91
2021/07/31 03:57:45;;;;;;;4.43;4.03;;;17.30;99.90;;;;;;5093440;28;20220;-92
2021/07/31 04:00:13;;;;;;;5.60;4.25;;;17.30;99.90;;;;;;5099510;28;20219;-91
2021/07/31 04:02:40;;;;;;;4.60;4.10;;;17.30;99.90;;;;;;5099259;28;20916;-91
2021/07/31 04:05:07;;;;;;;6.25;3.95;;;17.30;99.90;;;;;;5098900;28;20260;-92
2021/07/31 04:07:35;;;;;;;5.72;4.10;;;17.20;99.90;;;;;;5099435;28;20308;-91
2021/07/31 04:10:02;;;;;;;5.05;4.55;;;17.20;99.90;;;;;;5099195;28;20196;-91
2021/07/31 04:12:30;;;;;;;6.30;3.88;;;17.20;99.90;;;;;;5093992;28;20307;-90
2021/07/31 04:14:59;;;;;;;4.53;3.88;;;17.20;99.90;;;;;;5107051;28;20287;-94
2021/07/31 04:17:26;;;;;;;4.65;3.78;;;17.20;99.90;;;;;;5098843;28;20224;-90
2021/07/31 04:19:53;;;;;;;6.85;4.03;;;17.20;99.90;;;;;;5098980;28;20217;-91
2021/07/31 04:22:20;;;;;;;4.28;3.88;;;17.30;99.90;;;;;;5095617;28;20592;-91
2021/07/31 04:24:47;;;;;;;6.07;4.03;;;17.30;99.90;;;;;;5099061;28;20189;-90
2021/07/31 04:27:14;;;;;;;4.22;3.83;;;17.50;99.90;;;;;;5095653;28;20236;-90
2021/07/31 04:29:41;;;;;;;3.90;3.60;;;17.50;99.90;;;;;;5103429;28;20196;-91
2021/07/31 04:32:10;;;;;;;4.63;4.10;;;17.50;99.90;;;;;;5099644;28;20310;-91
2021/07/31 04:34:38;;;;;;;4.28;3.88;;;17.50;99.90;;;;;;5118943;28;20211;-91
2021/07/31 04:37:05;;;;;;;4.82;3.95;;;17.60;99.90;;;;;;5117658;28;20250;-91
2021/07/31 04:39:33;;;;;;;6.00;4.20;;;17.70;99.90;;;;;;5119034;28;20216;-90
2021/07/31 04:42:00;;;;;;;4.40;3.72;;;17.70;99.90;;;;;;5118663;28;20268;-91
2021/07/31 04:44:31;;;;;;;4.38;3.97;;;17.70;99.90;;;;;;5116209;28;20561;-91
2021/07/31 04:46:58;;;;;;;6.40;4.10;;;17.60;99.90;;;;;;5119617;28;20219;-90
2021/07/31 04:49:26;;;;;;;5.57;4.05;;;17.60;99.90;;;;;;5118945;28;20686;-91
2021/07/31 04:51:53;;;;;;;5.00;3.85;;;17.60;99.90;;;;;;5113620;28;20238;-90
2021/07/31 04:54:20;;;;;;;4.15;3.83;;;17.60;99.90;;;;;;5111787;28;20204;-91
2021/07/31 04:56:47;;;;;;;3.67;3.38;;;17.70;99.90;;;;;;5118063;28;20224;-90
2021/07/31 04:59:14;;;;;;;7.22;3.85;;;17.70;99.90;;;;;;5107366;28;20233;-90
2021/07/31 05:01:41;;;;;;;4.82;4.07;;;17.70;99.90;;;;;;5117952;28;20728;-91
2021/07/31 05:04:08;;;;;;;5.22;3.80;;;17.70;99.90;;;;;;5118430;28;20219;-91
2021/07/31 05:06:37;;;;;;;4.05;3.65;;;17.70;99.90;;;;;;5117260;28;20231;-90
2021/07/31 05:09:06;;;;;;;4.03;3.72;;;17.70;99.90;;;;;;5117893;28;20282;-91
2021/07/31 05:11:33;;;;;;;4.47;3.53;;;17.70;99.90;;;;;;5115285;28;20237;-92
2021/07/31 05:14:01;;;;;;;4.32;3.70;;;17.70;99.90;;;;;;5117291;28;20206;-91
2021/07/31 05:16:28;;;;;;;4.40;4.00;;;17.80;99.90;;;;;;5116374;28;20259;-91
2021/07/31 05:18:55;;;;;;;3.92;3.63;;;17.80;99.90;;;;;;5117150;28;20196;-92
2021/07/31 05:21:22;;;;;;;4.40;4.00;;;17.80;99.90;;;;;;5116742;28;20257;-92
2021/07/31 05:23:51;;;;;;;5.45;4.38;;;17.90;99.90;;;;;;5117414;28;20200;-91
2021/07/31 05:26:18;;;;;;;5.28;4.25;;;18.00;99.90;;;;;;5116888;28;20203;-91
2021/07/31 05:28:45;;;;;;;6.40;3.88;;;18.10;99.90;;;;;;5110873;28;20203;-91
2021/07/31 05:31:19;;;;;;;4.40;4.00;;;18.20;99.90;;;;;;5116285;28;20557;-91
2021/07/31 05:33:46;;;;;;;4.50;3.85;;;18.40;99.90;;;;;;5104366;28;20204;-91
2021/07/31 05:36:13;;;;;;;3.80;3.50;;;18.60;99.40;;;;;;5106624;28;20210;-91
2021/07/31 05:38:41;;;;;;;4.82;3.72;;;18.80;99.00;;;;;;5101270;28;20192;-89
2021/07/31 05:41:13;;;;;;;6.43;4.03;;;18.80;98.50;;;;;;5109646;28;20222;-89
2021/07/31 05:43:40;;;;;;;4.07;3.67;;;18.80;97.80;;;;;;5104843;28;20232;-88
2021/07/31 05:46:07;;;;;;;3.95;3.55;;;18.80;98.30;;;;;;5104124;28;20195;-91
2021/07/31 05:48:34;;;;;;;4.10;3.80;;;18.90;98.30;;;;;;5108084;28;20779;-90
2021/07/31 05:51:02;;;;;;;4.25;3.80;;;18.90;98.30;;;;;;5113352;28;20197;-89
2021/07/31 05:53:28;;;;;;;7.55;4.30;;;19.00;98.30;;;;;;5105900;28;20233;-88
2021/07/31 05:55:56;;;;;;;5.35;3.70;;;19.10;98.40;;;;;;5115317;28;20204;-88
2021/07/31 05:58:25;;;;;;;4.05;3.65;;;19.10;97.90;;;;;;5110081;28;20231;-88
2021/07/31 06:00:52;;;;;;;5.38;3.85;;;19.20;97.90;;;;;;5120943;28;20219;-88
2021/07/31 06:03:19;;;;;;;4.82;3.97;;;19.20;97.90;;;;;;5108403;28;20229;-88
2021/07/31 06:05:46;;;;;;;4.35;3.92;;;19.50;97.40;;;;;;5097233;28;20197;-88
2021/07/31 06:08:13;;;;;;;5.50;4.07;;;19.80;96.90;;;;;;5097454;28;20220;-88
2021/07/31 06:10:40;;;;;;;4.30;3.78;;;20.00;96.00;;;;;;5103517;28;20226;-88
2021/07/31 06:13:07;;;;;;;5.18;4.00;;;20.20;95.20;;;;;;5114907;28;20226;-90
2021/07/31 06:15:35;;;;;;;4.40;3.97;;;20.20;95.00;;;;;;5090177;28;20193;-88
2021/07/31 06:18:02;;;;;;;4.45;3.90;;;20.10;94.90;;;;;;5109513;28;20243;-87
2021/07/31 06:20:30;;;;;;;4.47;3.50;;;20.30;94.60;;;;;;5107790;28;20223;-87
2021/07/31 06:22:56;;;;;;;4.30;3.90;;;20.30;93.60;;;;;;5092476;28;20224;-88
2021/07/31 06:25:24;;;;;;;4.05;3.75;;;20.40;93.60;;;;;;5099967;28;20283;-89
2021/07/31 06:27:54;;;;;;;4.57;3.60;;;20.40;93.80;;;;;;5112094;27;20219;-88
2021/07/31 06:30:21;;;;;;;7.05;4.22;;;20.50;93.50;;;;;;5105655;28;20296;-89
2021/07/31 06:32:50;;;;;;;4.40;3.70;;;20.60;93.30;;;;;;5115700;28;20211;-89
2021/07/31 06:35:17;;;;;;;4.85;4.00;;;20.60;92.80;;;;;;5123603;28;20200;-87
2021/07/31 06:37:44;;;;;;;4.30;3.67;;;20.50;92.70;;;;;;5121564;28;20231;-88
2021/07/31 06:40:12;;;;;;;7.40;3.95;;;20.50;93.20;;;;;;5122698;28;20217;-88
2021/07/31 06:42:41;;;;;;;4.40;3.70;;;20.70;92.80;;;;;;5121805;28;20231;-88
2021/07/31 06:45:09;;;;;;;4.35;3.92;;;20.80;92.80;;;;;;5121784;28;20211;-87
2021/07/31 06:52:48;;;;;;;5.57;4.32;;;20.60;92.80;;;;;;5056121;22;20230;-87
2021/07/31 06:55:15;;;;;;;5.40;3.95;;;20.50;92.90;;;;;;5039083;28;20191;-87
2021/07/31 06:57:54;;;;;;;5.13;4.25;;;20.30;92.70;;;;;;5037987;28;20574;-87
2021/07/31 07:01:12;;;;;;;5.70;4.07;;;20.20;92.90;;;;;;5036755;28;20736;-89
2021/07/31 07:04:22;;;;;;;4.70;4.20;;;20.30;92.70;;;;;;5031855;28;20258;-87
2021/07/31 07:06:49;;;;;;;5.63;4.28;;;20.80;92.00;;;;;;5040879;28;20202;-88
2021/07/31 07:09:17;;;;;;;4.43;4.03;;;21.20;91.10;;;;;;5036361;28;20190;-87
2021/07/31 07:11:45;;;;;;;5.90;4.00;;;21.70;88.20;;;;;;5036057;28;20650;-87
2021/07/31 07:14:12;;;;;;;4.53;4.13;;;22.00;86.80;;;;;;5036494;28;20205;-87
2021/07/31 07:16:39;;;;;;;4.35;3.80;;;22.00;86.20;;;;;;5036618;28;20230;-87
2021/07/31 07:19:08;;;;;;;4.50;4.10;;;22.10;84.40;;;;;;5035645;28;20197;-88
2021/07/31 07:21:35;;;;;;;4.90;4.30;;;22.20;82.40;;;;;;5035282;28;20596;-87
2021/07/31 07:24:02;;;;;;;4.63;4.22;;;22.20;82.40;;;;;;5035766;28;20576;-87
2021/07/31 07:26:33;;;;;;;5.40;4.30;;;22.20;83.20;;;;;;5035926;28;20559;-86
2021/07/31 07:29:00;;;;;;;4.80;4.38;;;22.40;82.50;;;;;;5036730;28;20573;-87
2021/07/31 07:31:27;;;;;;;5.25;4.47;;;22.50;79.20;;;;;;5036336;28;20203;-87
2021/07/31 07:33:56;;;;;;;4.70;4.18;;;22.90;78.20;;;;;;5035934;28;20206;-87
2021/07/31 07:36:23;;;;;;;4.15;3.75;;;22.90;77.00;;;;;;5034457;28;20711;-87
2021/07/31 07:38:50;;;;;;;4.43;4.03;;;22.90;74.90;;;;;;5036841;28;20194;-87
2021/07/31 07:41:17;;;;;;;5.93;4.00;;;22.70;71.70;;;;;;5037397;28;20225;-87
2021/07/31 07:43:45;;;;;;;4.47;4.07;;;22.50;74.50;;;;;;5036130;28;20210;-88
2021/07/31 07:46:17;;;;;;;5.53;4.32;;;22.30;75.80;;;;;;5034809;28;20194;-88
2021/07/31 07:48:45;;;;;;;5.80;4.70;;;22.10;76.10;;;;;;5043210;28;20237;-87
2021/07/31 07:51:12;;;;;;;4.70;4.18;;;22.00;75.80;;;;;;5026328;28;20211;-88
2021/07/31 07:53:39;;;;;;;5.50;4.15;;;22.10;75.90;;;;;;5018833;28;20294;-88
2021/07/31 07:56:06;;;;;;;4.50;4.10;;;22.30;74.90;;;;;;5031663;28;20299;-87
2021/07/31 07:58:33;;;;;;;5.15;4.15;;;22.40;73.30;;;;;;5027083;28;20227;-87
2021/07/31 08:01:01;;;;;;;6.50;3.97;;;22.50;72.90;;;;;;5026603;28;20226;-86
2021/07/31 08:03:28;;;;;;;4.93;4.50;;;22.60;67.00;;;;;;5032194;28;20314;-86
2021/07/31 08:05:55;;;;;;;5.60;4.20;;;22.70;68.20;;;;;;5029130;28;20286;-87
2021/07/31 08:08:22;;;;;;;4.80;4.30;;;22.40;70.70;;;;;;5027121;28;20234;-86
2021/07/31 08:10:51;;;;;;;5.57;4.40;;;22.30;69.60;;;;;;5039921;28;20202;-85
2021/07/31 08:13:18;;;;;;;4.82;4.38;;;22.60;72.90;;;;;;5029010;28;20218;-87
2021/07/31 08:15:45;;;;;;;4.60;4.20;;;22.80;72.20;;;;;;5039597;28;20209;-86
2021/07/31 08:18:13;;;;;;;5.22;4.60;;;23.10;68.40;;;;;;5031828;28;20625;-87
2021/07/31 08:20:40;;;;;;;7.28;3.97;;;23.10;65.20;;;;;;5033806;28;20693;-85
2021/07/31 08:23:06;;;;;;;4.45;4.05;;;23.30;62.70;;;;;;5028408;28;20225;-84
2021/07/31 08:25:33;;;;;;;5.03;4.15;;;23.60;59.20;;;;;;5033978;28;20195;-86
2021/07/31 08:28:00;;;;;;;6.90;4.10;;;23.80;59.30;;;;;;5028126;28;20223;-84
2021/07/31 08:30:27;;;;;;;5.35;3.75;;;24.00;56.20;;;;;;5029196;28;20225;-85
2021/07/31 08:32:54;;;;;;;3.70;3.40;;;24.50;55.20;;;;;;5029887;28;20687;-82
2021/07/31 08:35:23;;;;;;;5.50;3.80;;;24.90;50.30;;;;;;5031405;28;20205;-87
2021/07/31 08:37:50;;;;;;;4.03;3.55;;;24.80;51.00;;;;;;5030555;28;20226;-88
2021/07/31 08:40:17;;;;;;;4.40;3.85;;;24.80;49.30;;;;;;5025835;28;20223;-83
2021/07/31 08:42:44;;;;;;;4.65;4.20;;;24.60;50.10;;;;;;5030973;28;20594;-83
2021/07/31 08:45:13;;;;;;;4.30;3.90;;;24.40;51.10;;;;;;5022482;28;20580;-87
2021/07/31 08:47:40;;;;;;;7.07;4.10;;;24.10;53.10;;;;;;5025710;28;20235;-85
2021/07/31 08:50:10;;;;;;;4.55;3.67;;;24.00;55.10;;;;;;5026621;28;20199;-85
2021/07/31 08:52:40;;;;;;;6.75;4.10;;;24.00;55.00;;;;;;5035615;28;20305;-83
2021/07/31 08:55:08;;;;;;;6.15;4.15;;;23.80;54.10;;;;;;5034208;28;20658;-85
2021/07/31 08:57:39;;;;;;;5.28;3.75;;;23.70;54.70;;;;;;5026162;28;20224;-85
2021/07/31 09:00:08;;;;;;;6.47;3.60;;;23.80;56.60;;;;;;5028243;28;20223;-85
2021/07/31 09:02:42;;;;;;;4.63;4.22;;;23.70;55.30;;;;;;5029306;28;20219;-86
2021/07/31 09:05:11;;;;;;;4.95;3.70;;;24.00;54.20;;;;;;5028432;28;20197;-86
2021/07/31 09:07:40;;;;;;;5.55;3.70;;;24.40;52.90;;;;;;5029108;28;20552;-87
2021/07/31 09:10:26;;;;;;;4.32;3.63;;;24.70;52.20;;;;;;5026528;28;20199;-85
2021/07/31 09:12:54;;;;;;;4.15;3.20;;;25.00;44.00;;;;;;5027138;28;20219;-86
2021/07/31 09:15:36;;;;;;;3.80;3.17;;;25.20;44.40;;;;;;5034562;28;20256;-86
2021/07/31 09:18:24;;;;;;;4.00;3.35;;;25.40;44.60;;;;;;5037520;28;20230;-88
2021/07/31 09:21:11;;;;;;;3.75;3.45;;;25.60;46.80;;;;;;5028810;28;20589;-88
2021/07/31 09:23:48;;;;;;;3.72;2.83;;;26.10;42.60;;;;;;5045821;28;20228;-86
2021/07/31 09:26:17;;;;;;;5.50;3.42;;;25.70;38.20;;;;;;5040828;28;20194;-87
2021/07/31 09:28:45;;;;;;;4.93;4.50;;;25.40;39.80;;;;;;5039456;28;20232;-86
2021/07/31 09:31:20;;;;;;;3.50;3.20;;;25.70;43.00;;;;;;5044060;28;20637;-87
2021/07/31 09:33:49;;;;;;;4.70;3.10;;;26.10;36.90;;;;;;5039360;28;20237;-87
2021/07/31 09:36:17;;;;;;;4.43;3.55;;;26.20;37.00;;;;;;5024062;28;20202;-88
2021/07/31 09:38:47;;;;;;;3.08;2.78;;;26.20;37.00;;;;;;5036695;28;20202;-87
2021/07/31 09:41:34;;;;;;;5.25;3.90;;;26.00;36.80;;;;;;5035502;28;20218;-88
2021/07/31 09:44:13;;;;;;;6.47;5.65;;;26.00;37.80;;;;;;5029259;28;20626;-89
2021/07/31 09:46:42;;;;;;;3.90;3.30;;;26.00;39.50;;;;;;5034809;28;20230;-87
2021/07/31 09:49:11;;;;;;;4.28;3.00;;;25.50;39.60;;;;;;5036075;28;20218;-84
2021/07/31 09:51:39;;;;;;;3.28;3.05;;;25.10;41.50;;;;;;5040296;28;20301;-85
2021/07/31 09:54:10;;;;;;;4.88;3.17;;;25.00;43.80;;;;;;5039313;28;20205;-88
2021/07/31 09:56:43;;;;;;;4.00;3.05;;;24.90;40.40;;;;;;5032399;28;20234;-88
2021/07/31 09:59:11;;;;;;;3.30;3.00;;;24.70;42.40;;;;;;5040502;28;20195;-87
2021/07/31 10:01:41;;;;;;;3.30;2.83;;;24.60;42.60;;;;;;5030522;28;20234;-85
2021/07/31 10:04:09;;;;;;;3.78;2.58;;;24.50;40.30;;;;;;5031543;28;20285;-86
2021/07/31 10:06:36;;;;;;;3.40;3.10;;;24.40;43.50;;;;;;5022608;28;20222;-85
2021/07/31 10:09:04;;;;;;;6.13;3.10;;;24.10;42.30;;;;;;5036121;28;20457;-88
2021/07/31 10:11:34;;;;;;;5.65;3.35;;;23.70;43.50;;;;;;5031962;28;20412;-87
2021/07/31 10:14:01;;;;;;;2.80;2.60;;;23.50;46.90;;;;;;5034017;28;20198;-87
2021/07/31 10:16:28;;;;;;;3.35;2.97;;;23.40;47.40;;;;;;5039101;28;20313;-88
2021/07/31 10:19:01;;;;;;;3.30;3.00;;;23.30;47.80;;;;;;5035925;28;20536;-87
2021/07/31 10:21:29;;;;;;;3.80;3.50;;;23.30;51.50;;;;;;5038581;28;20238;-87
2021/07/31 10:24:01;;;;;;;3.78;3.47;;;23.40;49.70;;;;;;5031092;28;20659;-88
2021/07/31 10:26:29;;;;;;;4.47;3.75;;;23.90;50.00;;;;;;5032399;28;20806;-85
2021/07/31 10:29:32;;;;;;;5.40;3.65;;;24.10;48.70;;;;;;5029278;28;20202;-85
2021/07/31 10:32:40;;;;;;;4.18;3.78;;;24.20;46.60;;;;;;5026101;28;20240;-85
2021/07/31 10:35:25;;;;;;;4.45;3.78;;;24.50;47.90;;;;;;5034816;28;20270;-86
2021/07/31 10:37:52;;;;;;;4.25;3.47;;;24.80;45.30;;;;;;5023272;28;20219;-86
2021/07/31 10:40:48;;;;;;;5.78;4.43;;;24.90;44.20;;;;;;5026493;28;20194;-85
2021/07/31 10:43:16;;;;;;;4.13;3.83;;;25.30;42.40;;;;;;5041790;28;20222;-89
2021/07/31 10:45:44;;;;;;;4.40;4.00;;;25.80;43.00;;;;;;5036730;28;20265;-89
2021/07/31 10:48:43;;;;;;;4.38;3.55;;;26.60;37.30;;;;;;5027436;28;20678;-89
2021/07/31 10:51:40;;;;;;;3.88;3.25;;;28.00;38.20;;;;;;4988066;28;20204;-86
2021/07/31 10:54:07;;;;;;;8.32;4.13;;;28.90;32.00;;;;;;5026280;28;20249;-87
2021/07/31 10:56:55;;;;;;;3.70;3.40;;;28.70;29.90;;;;;;5017467;28;20198;-87
2021/07/31 10:59:22;;;;;;;4.60;3.50;;;28.50;35.20;;;;;;5032595;28;20210;-88
2021/07/31 11:01:49;;;;;;;5.13;3.42;;;28.80;31.70;;;;;;5033839;28;20245;-87
2021/07/31 11:04:53;;;;;;;5.97;4.00;;;28.50;30.50;;;;;;5027087;28;20246;-88
2021/07/31 11:07:25;;;;;;;5.05;3.65;;;27.60;32.90;;;;;;5034062;28;20578;-86
2021/07/31 11:10:31;;;;;;;3.90;3.50;;;27.40;34.50;;;;;;5035346;28;20226;-87
2021/07/31 11:12:58;;;;;;;4.63;3.42;;;27.10;34.80;;;;;;5024980;28;20430;-87
2021/07/31 11:15:25;;;;;;;5.00;3.70;;;26.50;37.20;;;;;;5025858;28;20280;-86
2021/07/31 11:17:57;;;;;;;3.50;3.20;;;25.90;36.80;;;;;;5027378;28;20225;-86
2021/07/31 11:20:29;;;;;;;3.60;3.30;;;25.80;36.70;;;;;;5033432;28;20653;-87
2021/07/31 11:23:02;;;;;;;3.67;3.22;;;25.30;40.00;;;;;;5029212;28;20574;-85
2021/07/31 11:25:29;;;;;;;6.82;3.33;;;24.70;42.20;;;;;;5036154;28;20199;-85
2021/07/31 11:27:57;;;;;;;7.20;5.65;;;24.60;44.00;;;;;;5036784;28;20226;-85
2021/07/31 11:30:43;;;;;;;5.90;4.07;;;24.80;44.30;;;;;;5026518;28;20226;-84
2021/07/31 11:33:15;;;;;;;3.88;3.47;;;25.60;45.20;;;;;;5033779;28;20229;-85
2021/07/31 11:35:42;;;;;;;3.30;3.00;;;26.10;36.90;;;;;;5026363;28;20228;-87
2021/07/31 11:38:35;;;;;;;3.53;3.22;;;26.60;37.30;;;;;;5025680;28;20233;-88
2021/07/31 11:41:08;;;;;;;4.50;3.03;;;27.00;37.60;;;;;;5031938;28;20248;-87
2021/07/31 11:43:49;;;;;;;3.65;3.08;;;27.10;37.50;;;;;;5044986;28;20233;-86
2021/07/31 11:46:28;;;;;;;3.83;3.42;;;27.00;33.50;;;;;;5038231;28;20632;-87
2021/07/31 11:48:56;;;;;;;4.25;2.92;;;26.40;36.20;;;;;;5038184;28;20217;-86
2021/07/31 11:51:24;;;;;;;3.38;3.08;;;26.70;37.30;;;;;;5033787;28;21056;-86
2021/07/31 11:53:52;;;;;;;3.05;2.70;;;26.10;36.90;;;;;;5031755;28;20198;-87
2021/07/31 11:56:21;;;;;;;4.35;3.05;;;26.40;37.10;;;;;;5038236;28;20195;-86
2021/07/31 11:58:50;;;;;;;3.42;3.03;;;26.50;35.60;;;;;;5034600;28;20541;-86
2021/07/31 12:01:17;;;;;;;3.72;2.92;;;26.40;37.10;;;;;;5032416;28;20305;-87
2021/07/31 12:03:49;;;;;;;6.43;2.95;;;26.10;37.00;;;;;;5042830;28;20194;-88
2021/07/31 12:06:37;;;;;;;3.78;2.85;;;26.10;37.00;;;;;;5039763;28;20198;-86
2021/07/31 12:09:07;;;;;;;3.65;2.70;;;26.10;36.90;;;;;;5042225;28;20198;-85
2021/07/31 12:11:39;;;;;;;3.70;3.33;;;26.10;36.90;;;;;;5042852;28;20210;-89
2021/07/31 12:14:29;;;;;;;4.03;3.20;;;25.70;36.70;;;;;;5034922;28;20459;-85
2021/07/31 12:17:11;;;;;;;2.90;2.70;;;25.70;36.70;;;;;;5033519;28;20222;-85
2021/07/31 12:19:41;;;;;;;3.30;3.00;;;25.80;37.80;;;;;;5036746;28;20588;-88
2021/07/31 12:22:09;;;;;;;3.72;2.85;;;26.00;36.80;;;;;;5035459;28;20229;-89
2021/07/31 12:24:37;;;;;;;2.97;2.78;;;26.10;36.90;;;;;;5037290;28;20233;-89
2021/07/31 12:27:05;;;;;;;3.20;2.90;;;26.30;37.00;;;;;;5038469;28;20222;-88
2021/07/31 12:29:33;;;;;;;4.97;2.90;;;26.60;36.40;;;;;;5036316;28;20205;-88
2021/07/31 12:32:20;;;;;;;3.10;2.80;;;26.40;37.10;;;;;;5036949;28;20282;-88
2021/07/31 12:34:47;;;;;;;3.30;3.00;;;26.20;37.00;;;;;;5038745;28;20660;-85
2021/07/31 12:37:14;;;;;;;3.28;2.97;;;26.30;37.00;;;;;;5035804;28;20230;-87
2021/07/31 12:39:43;;;;;;;3.92;2.67;;;26.50;37.20;;;;;;5035672;28;20206;-87
2021/07/31 12:42:10;;;;;;;3.65;3.33;;;26.50;35.20;;;;;;5039714;28;20608;-84
2021/07/31 12:44:38;;;;;;;3.72;3.20;;;26.20;37.00;;;;;;5034650;28;20209;-84
2021/07/31 12:47:06;;;;;;;3.60;3.00;;;26.30;37.00;;;;;;5045523;28;20292;-85
2021/07/31 12:49:34;;;;;;;4.10;3.70;;;26.10;36.90;;;;;;5027837;28;20219;-84
2021/07/31 12:52:01;;;;;;;3.53;3.22;;;25.70;36.70;;;;;;5032964;28;20288;-86
2021/07/31 12:54:28;;;;;;;3.90;3.10;;;25.70;36.70;;;;;;5045300;28;20236;-85
2021/07/31 12:56:56;;;;;;;3.83;2.80;;;25.60;39.00;;;;;;5043060;28;20229;-85
2021/07/31 12:59:23;;;;;;;4.00;3.20;;;25.60;36.60;;;;;;5041995;28;20199;-85
2021/07/31 13:01:50;;;;;;;3.58;3.10;;;25.80;36.80;;;;;;5039452;28;20232;-85
2021/07/31 13:04:17;;;;;;;10.80;9.70;;;25.30;36.40;;;;;;5045131;28;20266;-86